sensor_id;sensor_type;location;lat;lon;timestamp;P1;durP1;ratioP1;P2;durP2;ratioP2
18136;SDS011;9194;42.632;23.298;2022-12-20T00:02:56;22.63;;;9.93;;
18136;SDS011;9194;42.632;23.298;2022-12-20T00:07:58;34.80;;;10.43;;
18136;SDS011;9194;42.632;23.298;2022-12-20T00:12:59;27.20;;;11.57;;
18136;SDS011;9194;42.632;23.298;2022-12-20T00:18:00;37.33;;;12.97;;
18136;SDS011;9194;42.632;23.298;2022-12-20T00:23:02;35.63;;;11.97;;
18136;SDS011;9194;42.632;23.298;2022-12-20T00:28:03;22.60;;;9.80;;
18136;SDS011;9194;42.632;23.298;2022-12-20T00:33:05;18.97;;;8.27;;
18136;SDS011;9194;42.632;23.298;2022-12-20T00:38:07;21.87;;;8.33;;
18136;SDS011;9194;42.632;23.298;2022-12-20T00:43:09;25.63;;;9.33;;
18136;SDS011;9194;42.632;23.298;2022-12-20T00:48:12;20.63;;;8.57;;
18136;SDS011;9194;42.632;23.298;2022-12-20T00:53:13;18.97;;;8.13;;
18136;SDS011;9194;42.632;23.298;2022-12-20T00:58:15;16.60;;;8.13;;
18136;SDS011;9194;42.632;23.298;2022-12-20T01:03:16;23.10;;;7.90;;
18136;SDS011;9194;42.632;23.298;2022-12-20T01:08:18;17.10;;;7.23;;
18136;SDS011;9194;42.632;23.298;2022-12-20T01:13:19;17.20;;;7.00;;
18136;SDS011;9194;42.632;23.298;2022-12-20T01:18:21;15.53;;;6.80;;
18136;SDS011;9194;42.632;23.298;2022-12-20T01:23:23;17.17;;;8.27;;
18136;SDS011;9194;42.632;23.298;2022-12-20T01:28:24;16.40;;;7.60;;
18136;SDS011;9194;42.632;23.298;2022-12-20T01:33:26;15.40;;;7.13;;
18136;SDS011;9194;42.632;23.298;2022-12-20T01:38:27;15.10;;;7.20;;
18136;SDS011;9194;42.632;23.298;2022-12-20T01:49:18;16.57;;;8.00;;
18136;SDS011;9194;42.632;23.298;2022-12-20T01:59:36;23.77;;;8.17;;
18136;SDS011;9194;42.632;23.298;2022-12-20T02:04:41;16.10;;;6.93;;
18136;SDS011;9194;42.632;23.298;2022-12-20T02:09:46;15.97;;;7.47;;
18136;SDS011;9194;42.632;23.298;2022-12-20T02:15:01;12.30;;;7.40;;
18136;SDS011;9194;42.632;23.298;2022-12-20T02:25:58;21.07;;;8.40;;
18136;SDS011;9194;42.632;23.298;2022-12-20T02:31:07;19.90;;;7.57;;
18136;SDS011;9194;42.632;23.298;2022-12-20T02:36:17;15.70;;;8.13;;
18136;SDS011;9194;42.632;23.298;2022-12-20T02:41:25;16.33;;;8.27;;
18136;SDS011;9194;42.632;23.298;2022-12-20T02:46:32;18.60;;;7.30;;
18136;SDS011;9194;42.632;23.298;2022-12-20T02:51:35;14.87;;;7.03;;
18136;SDS011;9194;42.632;23.298;2022-12-20T02:56:42;19.87;;;8.10;;
18136;SDS011;9194;42.632;23.298;2022-12-20T03:01:49;13.57;;;6.77;;
18136;SDS011;9194;42.632;23.298;2022-12-20T03:11:57;16.07;;;7.23;;
18136;SDS011;9194;42.632;23.298;2022-12-20T03:16:58;17.17;;;7.43;;
18136;SDS011;9194;42.632;23.298;2022-12-20T03:22:00;16.93;;;7.57;;
18136;SDS011;9194;42.632;23.298;2022-12-20T03:27:01;15.50;;;6.83;;
18136;SDS011;9194;42.632;23.298;2022-12-20T03:32:03;12.60;;;6.40;;
18136;SDS011;9194;42.632;23.298;2022-12-20T03:37:05;16.50;;;6.43;;
18136;SDS011;9194;42.632;23.298;2022-12-20T03:42:06;12.67;;;6.40;;
18136;SDS011;9194;42.632;23.298;2022-12-20T03:47:08;13.73;;;7.23;;
18136;SDS011;9194;42.632;23.298;2022-12-20T03:52:11;12.63;;;6.13;;
18136;SDS011;9194;42.632;23.298;2022-12-20T03:57:13;13.77;;;6.83;;
18136;SDS011;9194;42.632;23.298;2022-12-20T04:02:15;15.23;;;7.10;;
18136;SDS011;9194;42.632;23.298;2022-12-20T04:07:16;17.00;;;6.37;;
18136;SDS011;9194;42.632;23.298;2022-12-20T04:12:20;11.63;;;6.00;;
18136;SDS011;9194;42.632;23.298;2022-12-20T04:17:22;15.37;;;6.83;;
18136;SDS011;9194;42.632;23.298;2022-12-20T04:22:24;13.97;;;7.20;;
18136;SDS011;9194;42.632;23.298;2022-12-20T04:27:33;18.03;;;7.47;;
18136;SDS011;9194;42.632;23.298;2022-12-20T04:32:36;16.43;;;7.90;;
18136;SDS011;9194;42.632;23.298;2022-12-20T04:37:38;17.57;;;7.37;;
18136;SDS011;9194;42.632;23.298;2022-12-20T04:42:40;18.87;;;7.93;;
18136;SDS011;9194;42.632;23.298;2022-12-20T04:47:44;19.73;;;7.23;;
18136;SDS011;9194;42.632;23.298;2022-12-20T04:52:47;17.37;;;8.07;;
18136;SDS011;9194;42.632;23.298;2022-12-20T04:58:08;19.93;;;7.67;;
18136;SDS011;9194;42.632;23.298;2022-12-20T05:03:13;16.87;;;7.00;;
18136;SDS011;9194;42.632;23.298;2022-12-20T05:08:15;19.47;;;7.97;;
18136;SDS011;9194;42.632;23.298;2022-12-20T05:13:20;12.70;;;6.70;;
18136;SDS011;9194;42.632;23.298;2022-12-20T05:18:22;15.57;;;7.33;;
18136;SDS011;9194;42.632;23.298;2022-12-20T05:23:31;23.73;;;7.17;;
18136;SDS011;9194;42.632;23.298;2022-12-20T05:28:55;22.67;;;8.00;;
18136;SDS011;9194;42.632;23.298;2022-12-20T05:33:59;15.37;;;7.00;;
18136;SDS011;9194;42.632;23.298;2022-12-20T05:39:04;15.00;;;7.70;;
18136;SDS011;9194;42.632;23.298;2022-12-20T05:44:09;19.40;;;7.00;;
18136;SDS011;9194;42.632;23.298;2022-12-20T05:49:14;16.70;;;6.67;;
18136;SDS011;9194;42.632;23.298;2022-12-20T05:54:16;15.83;;;7.37;;
18136;SDS011;9194;42.632;23.298;2022-12-20T05:59:27;16.80;;;6.97;;
18136;SDS011;9194;42.632;23.298;2022-12-20T06:04:30;20.03;;;7.30;;
18136;SDS011;9194;42.632;23.298;2022-12-20T06:09:32;14.90;;;7.03;;
18136;SDS011;9194;42.632;23.298;2022-12-20T06:14:41;10.80;;;6.60;;
18136;SDS011;9194;42.632;23.298;2022-12-20T06:19:42;14.90;;;6.67;;
18136;SDS011;9194;42.632;23.298;2022-12-20T06:24:46;15.57;;;7.30;;
18136;SDS011;9194;42.632;23.298;2022-12-20T06:29:48;14.97;;;6.47;;
18136;SDS011;9194;42.632;23.298;2022-12-20T06:34:57;18.30;;;7.63;;
18136;SDS011;9194;42.632;23.298;2022-12-20T06:39:58;19.03;;;7.57;;
18136;SDS011;9194;42.632;23.298;2022-12-20T06:45:00;20.83;;;8.33;;
18136;SDS011;9194;42.632;23.298;2022-12-20T06:50:03;18.13;;;8.70;;
18136;SDS011;9194;42.632;23.298;2022-12-20T06:55:05;15.13;;;7.47;;
18136;SDS011;9194;42.632;23.298;2022-12-20T07:00:11;21.50;;;9.13;;
18136;SDS011;9194;42.632;23.298;2022-12-20T07:05:13;26.40;;;9.57;;
18136;SDS011;9194;42.632;23.298;2022-12-20T07:10:15;24.77;;;9.37;;
18136;SDS011;9194;42.632;23.298;2022-12-20T07:15:16;27.20;;;11.23;;
18136;SDS011;9194;42.632;23.298;2022-12-20T07:20:17;25.33;;;11.23;;
18136;SDS011;9194;42.632;23.298;2022-12-20T07:25:19;24.73;;;10.90;;
18136;SDS011;9194;42.632;23.298;2022-12-20T07:30:20;24.77;;;11.00;;
18136;SDS011;9194;42.632;23.298;2022-12-20T07:35:23;32.67;;;11.73;;
18136;SDS011;9194;42.632;23.298;2022-12-20T07:40:24;21.80;;;11.30;;
18136;SDS011;9194;42.632;23.298;2022-12-20T07:45:25;24.80;;;11.67;;
18136;SDS011;9194;42.632;23.298;2022-12-20T07:50:27;23.70;;;9.97;;
18136;SDS011;9194;42.632;23.298;2022-12-20T07:55:29;24.67;;;10.03;;
18136;SDS011;9194;42.632;23.298;2022-12-20T08:00:31;20.07;;;9.47;;
18136;SDS011;9194;42.632;23.298;2022-12-20T08:05:33;25.23;;;10.07;;
18136;SDS011;9194;42.632;23.298;2022-12-20T08:10:37;16.87;;;7.80;;
18136;SDS011;9194;42.632;23.298;2022-12-20T08:15:39;29.93;;;8.83;;
18136;SDS011;9194;42.632;23.298;2022-12-20T08:20:41;19.33;;;8.97;;
18136;SDS011;9194;42.632;23.298;2022-12-20T08:25:42;16.57;;;8.23;;
18136;SDS011;9194;42.632;23.298;2022-12-20T08:30:43;18.80;;;7.73;;
18136;SDS011;9194;42.632;23.298;2022-12-20T08:35:44;19.30;;;8.03;;
18136;SDS011;9194;42.632;23.298;2022-12-20T08:40:46;21.50;;;9.30;;
18136;SDS011;9194;42.632;23.298;2022-12-20T08:45:51;16.17;;;7.93;;
18136;SDS011;9194;42.632;23.298;2022-12-20T08:50:56;20.27;;;8.00;;
18136;SDS011;9194;42.632;23.298;2022-12-20T09:01:11;17.77;;;8.00;;
18136;SDS011;9194;42.632;23.298;2022-12-20T09:06:16;18.97;;;8.17;;
18136;SDS011;9194;42.632;23.298;2022-12-20T09:11:22;21.60;;;8.80;;
18136;SDS011;9194;42.632;23.298;2022-12-20T09:16:26;22.07;;;9.10;;
18136;SDS011;9194;42.632;23.298;2022-12-20T09:21:29;19.70;;;7.97;;
18136;SDS011;9194;42.632;23.298;2022-12-20T09:26:31;20.87;;;8.50;;
18136;SDS011;9194;42.632;23.298;2022-12-20T09:31:34;22.77;;;8.80;;
18136;SDS011;9194;42.632;23.298;2022-12-20T09:36:36;23.70;;;9.17;;
18136;SDS011;9194;42.632;23.298;2022-12-20T09:41:39;26.40;;;8.43;;
18136;SDS011;9194;42.632;23.298;2022-12-20T09:46:42;18.67;;;7.77;;
18136;SDS011;9194;42.632;23.298;2022-12-20T10:02:40;26.50;;;8.97;;
18136;SDS011;9194;42.632;23.298;2022-12-20T10:07:52;23.07;;;9.10;;
18136;SDS011;9194;42.632;23.298;2022-12-20T10:18:16;19.63;;;9.40;;
18136;SDS011;9194;42.632;23.298;2022-12-20T10:28:58;21.07;;;8.80;;
18136;SDS011;9194;42.632;23.298;2022-12-20T10:33:59;20.07;;;8.57;;
18136;SDS011;9194;42.632;23.298;2022-12-20T10:39:05;25.40;;;9.40;;
18136;SDS011;9194;42.632;23.298;2022-12-20T10:44:27;16.17;;;7.83;;
18136;SDS011;9194;42.632;23.298;2022-12-20T10:54:37;21.37;;;9.10;;
18136;SDS011;9194;42.632;23.298;2022-12-20T10:59:39;16.47;;;8.30;;
18136;SDS011;9194;42.632;23.298;2022-12-20T11:04:43;19.83;;;8.13;;
18136;SDS011;9194;42.632;23.298;2022-12-20T11:10:02;18.80;;;9.10;;
18136;SDS011;9194;42.632;23.298;2022-12-20T11:15:23;14.73;;;7.53;;
18136;SDS011;9194;42.632;23.298;2022-12-20T11:57:20;16.07;;;7.13;;
18136;SDS011;9194;42.632;23.298;2022-12-20T12:08:04;19.70;;;7.80;;
18136;SDS011;9194;42.632;23.298;2022-12-20T12:13:14;18.40;;;6.87;;
18136;SDS011;9194;42.632;23.298;2022-12-20T12:18:19;14.73;;;7.27;;
18136;SDS011;9194;42.632;23.298;2022-12-20T12:23:31;13.43;;;7.13;;
18136;SDS011;9194;42.632;23.298;2022-12-20T12:28:35;17.27;;;7.07;;
18136;SDS011;9194;42.632;23.298;2022-12-20T12:33:40;22.00;;;9.27;;
18136;SDS011;9194;42.632;23.298;2022-12-20T12:49:43;15.67;;;7.37;;
18136;SDS011;9194;42.632;23.298;2022-12-20T12:54:50;19.43;;;8.13;;
18136;SDS011;9194;42.632;23.298;2022-12-20T12:59:51;21.23;;;7.93;;
18136;SDS011;9194;42.632;23.298;2022-12-20T13:10:02;20.70;;;7.13;;
18136;SDS011;9194;42.632;23.298;2022-12-20T13:20:32;23.33;;;7.60;;
18136;SDS011;9194;42.632;23.298;2022-12-20T13:25:37;14.13;;;6.93;;
18136;SDS011;9194;42.632;23.298;2022-12-20T13:30:47;15.57;;;7.23;;
18136;SDS011;9194;42.632;23.298;2022-12-20T13:46:44;15.80;;;6.57;;
18136;SDS011;9194;42.632;23.298;2022-12-20T13:57:17;14.37;;;7.17;;
18136;SDS011;9194;42.632;23.298;2022-12-20T14:02:32;22.67;;;6.73;;
18136;SDS011;9194;42.632;23.298;2022-12-20T14:07:36;13.43;;;6.63;;
18136;SDS011;9194;42.632;23.298;2022-12-20T14:12:40;13.87;;;5.60;;
18136;SDS011;9194;42.632;23.298;2022-12-20T14:17:46;14.03;;;6.60;;
18136;SDS011;9194;42.632;23.298;2022-12-20T14:28:01;12.90;;;6.73;;
18136;SDS011;9194;42.632;23.298;2022-12-20T14:33:03;16.77;;;6.30;;
18136;SDS011;9194;42.632;23.298;2022-12-20T14:38:04;12.70;;;5.73;;
18136;SDS011;9194;42.632;23.298;2022-12-20T14:43:26;10.53;;;5.70;;
18136;SDS011;9194;42.632;23.298;2022-12-20T14:48:32;10.30;;;5.50;;
18136;SDS011;9194;42.632;23.298;2022-12-20T14:53:35;14.90;;;6.37;;
18136;SDS011;9194;42.632;23.298;2022-12-20T14:58:39;12.00;;;5.97;;
18136;SDS011;9194;42.632;23.298;2022-12-20T15:03:56;8.90;;;4.80;;
18136;SDS011;9194;42.632;23.298;2022-12-20T15:09:00;17.23;;;5.73;;
18136;SDS011;9194;42.632;23.298;2022-12-20T15:14:04;10.70;;;5.63;;
18136;SDS011;9194;42.632;23.298;2022-12-20T15:19:21;12.00;;;5.80;;
18136;SDS011;9194;42.632;23.298;2022-12-20T15:24:24;18.20;;;5.33;;
18136;SDS011;9194;42.632;23.298;2022-12-20T15:29:26;10.17;;;4.70;;
18136;SDS011;9194;42.632;23.298;2022-12-20T15:34:35;8.83;;;4.70;;
18136;SDS011;9194;42.632;23.298;2022-12-20T15:39:38;8.83;;;4.53;;
18136;SDS011;9194;42.632;23.298;2022-12-20T15:44:39;11.53;;;4.97;;
18136;SDS011;9194;42.632;23.298;2022-12-20T15:49:41;8.97;;;5.07;;
18136;SDS011;9194;42.632;23.298;2022-12-20T15:54:42;13.23;;;5.30;;
18136;SDS011;9194;42.632;23.298;2022-12-20T15:59:44;13.23;;;5.97;;
18136;SDS011;9194;42.632;23.298;2022-12-20T16:04:46;12.67;;;6.53;;
18136;SDS011;9194;42.632;23.298;2022-12-20T16:09:47;9.53;;;5.37;;
18136;SDS011;9194;42.632;23.298;2022-12-20T16:14:49;13.87;;;5.30;;
18136;SDS011;9194;42.632;23.298;2022-12-20T16:19:51;10.07;;;5.30;;
18136;SDS011;9194;42.632;23.298;2022-12-20T16:24:52;10.20;;;5.17;;
18136;SDS011;9194;42.632;23.298;2022-12-20T16:29:54;6.60;;;4.17;;
18136;SDS011;9194;42.632;23.298;2022-12-20T16:34:55;8.83;;;4.07;;
18136;SDS011;9194;42.632;23.298;2022-12-20T16:39:56;6.50;;;4.23;;
18136;SDS011;9194;42.632;23.298;2022-12-20T16:44:57;8.47;;;4.53;;
18136;SDS011;9194;42.632;23.298;2022-12-20T16:49:59;11.03;;;4.57;;
18136;SDS011;9194;42.632;23.298;2022-12-20T16:55:00;6.70;;;3.60;;
18136;SDS011;9194;42.632;23.298;2022-12-20T17:00:02;5.77;;;3.90;;
18136;SDS011;9194;42.632;23.298;2022-12-20T17:05:04;19.27;;;4.10;;
18136;SDS011;9194;42.632;23.298;2022-12-20T17:10:07;15.50;;;4.57;;
18136;SDS011;9194;42.632;23.298;2022-12-20T17:15:31;10.77;;;5.40;;
18136;SDS011;9194;42.632;23.298;2022-12-20T17:20:31;9.17;;;5.13;;
18136;SDS011;9194;42.632;23.298;2022-12-20T17:25:34;6.57;;;4.20;;
18136;SDS011;9194;42.632;23.298;2022-12-20T17:30:36;9.00;;;4.63;;
18136;SDS011;9194;42.632;23.298;2022-12-20T17:35:38;8.10;;;4.07;;
18136;SDS011;9194;42.632;23.298;2022-12-20T17:40:39;6.50;;;4.47;;
18136;SDS011;9194;42.632;23.298;2022-12-20T17:45:40;10.00;;;4.50;;
18136;SDS011;9194;42.632;23.298;2022-12-20T17:50:44;9.50;;;4.60;;
18136;SDS011;9194;42.632;23.298;2022-12-20T17:55:46;9.77;;;4.00;;
18136;SDS011;9194;42.632;23.298;2022-12-20T18:00:48;12.10;;;5.53;;
18136;SDS011;9194;42.632;23.298;2022-12-20T18:05:50;13.83;;;5.67;;
18136;SDS011;9194;42.632;23.298;2022-12-20T18:10:52;24.07;;;6.97;;
18136;SDS011;9194;42.632;23.298;2022-12-20T18:15:53;19.90;;;8.87;;
18136;SDS011;9194;42.632;23.298;2022-12-20T18:21:02;9.97;;;6.10;;
18136;SDS011;9194;42.632;23.298;2022-12-20T18:26:15;11.17;;;4.27;;
18136;SDS011;9194;42.632;23.298;2022-12-20T18:31:18;10.83;;;4.40;;
18136;SDS011;9194;42.632;23.298;2022-12-20T18:36:22;8.30;;;3.90;;
18136;SDS011;9194;42.632;23.298;2022-12-20T18:41:29;14.23;;;6.20;;
18136;SDS011;9194;42.632;23.298;2022-12-20T18:46:30;14.67;;;8.23;;
18136;SDS011;9194;42.632;23.298;2022-12-20T18:51:33;15.03;;;7.30;;
18136;SDS011;9194;42.632;23.298;2022-12-20T18:56:38;16.63;;;7.90;;
18136;SDS011;9194;42.632;23.298;2022-12-20T19:01:40;27.57;;;10.07;;
18136;SDS011;9194;42.632;23.298;2022-12-20T19:06:42;22.90;;;9.53;;
18136;SDS011;9194;42.632;23.298;2022-12-20T19:11:43;23.83;;;9.23;;
18136;SDS011;9194;42.632;23.298;2022-12-20T19:16:45;22.07;;;8.50;;
18136;SDS011;9194;42.632;23.298;2022-12-20T19:21:49;14.70;;;7.63;;
18136;SDS011;9194;42.632;23.298;2022-12-20T19:26:50;18.13;;;7.57;;
18136;SDS011;9194;42.632;23.298;2022-12-20T19:31:52;17.57;;;6.67;;
18136;SDS011;9194;42.632;23.298;2022-12-20T19:36:53;16.07;;;6.10;;
18136;SDS011;9194;42.632;23.298;2022-12-20T19:41:54;10.63;;;6.33;;
18136;SDS011;9194;42.632;23.298;2022-12-20T19:46:56;14.97;;;7.30;;
18136;SDS011;9194;42.632;23.298;2022-12-20T19:51:57;17.43;;;7.27;;
18136;SDS011;9194;42.632;23.298;2022-12-20T19:56:59;17.80;;;8.40;;
18136;SDS011;9194;42.632;23.298;2022-12-20T20:02:00;16.60;;;7.17;;
18136;SDS011;9194;42.632;23.298;2022-12-20T20:07:02;25.40;;;8.23;;
18136;SDS011;9194;42.632;23.298;2022-12-20T20:12:04;29.60;;;10.57;;
18136;SDS011;9194;42.632;23.298;2022-12-20T20:17:06;28.43;;;10.70;;
18136;SDS011;9194;42.632;23.298;2022-12-20T20:22:07;25.17;;;10.90;;
18136;SDS011;9194;42.632;23.298;2022-12-20T20:27:10;25.67;;;11.03;;
18136;SDS011;9194;42.632;23.298;2022-12-20T20:32:11;26.30;;;10.30;;
18136;SDS011;9194;42.632;23.298;2022-12-20T20:37:13;22.77;;;9.97;;
18136;SDS011;9194;42.632;23.298;2022-12-20T20:42:14;16.70;;;8.17;;
18136;SDS011;9194;42.632;23.298;2022-12-20T20:47:16;16.57;;;7.37;;
18136;SDS011;9194;42.632;23.298;2022-12-20T20:52:17;17.90;;;7.13;;
18136;SDS011;9194;42.632;23.298;2022-12-20T20:57:19;13.50;;;5.77;;
18136;SDS011;9194;42.632;23.298;2022-12-20T21:02:21;12.33;;;5.77;;
18136;SDS011;9194;42.632;23.298;2022-12-20T21:07:24;11.77;;;5.90;;
18136;SDS011;9194;42.632;23.298;2022-12-20T21:12:25;7.93;;;4.90;;
18136;SDS011;9194;42.632;23.298;2022-12-20T21:17:27;9.77;;;4.10;;
18136;SDS011;9194;42.632;23.298;2022-12-20T21:22:31;6.53;;;4.30;;
18136;SDS011;9194;42.632;23.298;2022-12-20T21:27:32;13.27;;;6.70;;
18136;SDS011;9194;42.632;23.298;2022-12-20T21:32:33;10.87;;;5.33;;
18136;SDS011;9194;42.632;23.298;2022-12-20T21:37:35;9.03;;;4.63;;
18136;SDS011;9194;42.632;23.298;2022-12-20T21:42:36;15.80;;;5.07;;
18136;SDS011;9194;42.632;23.298;2022-12-20T21:47:37;12.23;;;5.50;;
18136;SDS011;9194;42.632;23.298;2022-12-20T21:52:38;12.00;;;6.00;;
18136;SDS011;9194;42.632;23.298;2022-12-20T21:57:40;11.50;;;5.50;;
18136;SDS011;9194;42.632;23.298;2022-12-20T22:02:43;11.77;;;6.00;;
18136;SDS011;9194;42.632;23.298;2022-12-20T22:07:45;14.13;;;6.13;;
18136;SDS011;9194;42.632;23.298;2022-12-20T22:12:47;13.20;;;7.33;;
18136;SDS011;9194;42.632;23.298;2022-12-20T22:17:48;15.73;;;6.70;;
18136;SDS011;9194;42.632;23.298;2022-12-20T22:22:49;11.07;;;5.53;;
18136;SDS011;9194;42.632;23.298;2022-12-20T22:27:51;21.53;;;7.10;;
18136;SDS011;9194;42.632;23.298;2022-12-20T22:32:53;17.37;;;8.03;;
18136;SDS011;9194;42.632;23.298;2022-12-20T22:37:54;17.37;;;8.30;;
18136;SDS011;9194;42.632;23.298;2022-12-20T22:42:56;31.50;;;11.20;;
18136;SDS011;9194;42.632;23.298;2022-12-20T22:47:57;27.53;;;11.67;;
18136;SDS011;9194;42.632;23.298;2022-12-20T22:52:58;27.53;;;9.90;;
18136;SDS011;9194;42.632;23.298;2022-12-20T22:58:00;20.93;;;8.97;;
18136;SDS011;9194;42.632;23.298;2022-12-20T23:03:01;21.00;;;9.70;;
18136;SDS011;9194;42.632;23.298;2022-12-20T23:08:02;22.87;;;9.10;;
18136;SDS011;9194;42.632;23.298;2022-12-20T23:13:04;31.53;;;10.10;;
18136;SDS011;9194;42.632;23.298;2022-12-20T23:18:24;19.77;;;8.53;;
18136;SDS011;9194;42.632;23.298;2022-12-20T23:23:25;21.87;;;8.90;;
18136;SDS011;9194;42.632;23.298;2022-12-20T23:28:26;17.73;;;7.83;;
18136;SDS011;9194;42.632;23.298;2022-12-20T23:33:28;16.13;;;7.53;;
18136;SDS011;9194;42.632;23.298;2022-12-20T23:38:32;12.83;;;7.10;;
18136;SDS011;9194;42.632;23.298;2022-12-20T23:43:37;12.80;;;6.63;;
18136;SDS011;9194;42.632;23.298;2022-12-20T23:48:39;12.33;;;6.10;;
18136;SDS011;9194;42.632;23.298;2022-12-20T23:53:40;8.97;;;4.90;;
18136;SDS011;9194;42.632;23.298;2022-12-20T23:58:42;15.03;;;6.27;;
